sensor_id;sensor_type;location;lat;lon;timestamp;temperature;humidity
54192;DHT22;40101;53.002;6.488;2023-07-29T00:00:40;18.60;99.90
54192;DHT22;40101;53.002;6.488;2023-07-29T00:03:05;18.50;99.90
54192;DHT22;40101;53.002;6.488;2023-07-29T00:05:32;18.60;99.90
54192;DHT22;40101;53.002;6.488;2023-07-29T00:07:58;18.60;99.90
54192;DHT22;40101;53.002;6.488;2023-07-29T00:10:23;18.70;99.90
54192;DHT22;40101;53.002;6.488;2023-07-29T00:12:49;18.60;99.90
54192;DHT22;40101;53.002;6.488;2023-07-29T00:15:14;18.60;99.90
54192;DHT22;40101;53.002;6.488;2023-07-29T00:17:40;18.60;99.90
54192;DHT22;40101;53.002;6.488;2023-07-29T00:20:06;18.70;99.90
54192;DHT22;40101;53.002;6.488;2023-07-29T00:22:33;18.60;99.90
54192;DHT22;40101;53.002;6.488;2023-07-29T00:24:58;18.60;99.90
54192;DHT22;40101;53.002;6.488;2023-07-29T00:27:25;18.50;99.90
54192;DHT22;40101;53.002;6.488;2023-07-29T00:29:51;18.60;99.90
54192;DHT22;40101;53.002;6.488;2023-07-29T00:32:17;18.50;99.90
54192;DHT22;40101;53.002;6.488;2023-07-29T00:34:43;18.50;99.90
54192;DHT22;40101;53.002;6.488;2023-07-29T00:37:09;18.40;99.90
54192;DHT22;40101;53.002;6.488;2023-07-29T00:39:36;18.40;99.90
54192;DHT22;40101;53.002;6.488;2023-07-29T00:42:03;18.30;99.90
54192;DHT22;40101;53.002;6.488;2023-07-29T00:44:28;18.30;99.90
54192;DHT22;40101;53.002;6.488;2023-07-29T00:46:54;18.20;99.90
54192;DHT22;40101;53.002;6.488;2023-07-29T00:49:21;18.30;99.90
54192;DHT22;40101;53.002;6.488;2023-07-29T00:51:47;18.20;99.90
54192;DHT22;40101;53.002;6.488;2023-07-29T00:54:13;18.20;99.90
54192;DHT22;40101;53.002;6.488;2023-07-29T00:56:40;18.20;99.90
54192;DHT22;40101;53.002;6.488;2023-07-29T00:59:05;18.10;99.90
54192;DHT22;40101;53.002;6.488;2023-07-29T01:01:32;18.30;99.90
54192;DHT22;40101;53.002;6.488;2023-07-29T01:03:58;18.00;99.90
54192;DHT22;40101;53.002;6.488;2023-07-29T01:06:41;18.10;99.90
54192;DHT22;40101;53.002;6.488;2023-07-29T01:12:23;17.80;99.90
54192;DHT22;40101;53.002;6.488;2023-07-29T01:17:48;17.70;99.90
54192;DHT22;40101;53.002;6.488;2023-07-29T01:20:16;17.60;99.90
54192;DHT22;40101;53.002;6.488;2023-07-29T01:22:43;17.60;99.90
54192;DHT22;40101;53.002;6.488;2023-07-29T01:25:09;17.60;99.90
54192;DHT22;40101;53.002;6.488;2023-07-29T01:27:34;17.70;99.90
54192;DHT22;40101;53.002;6.488;2023-07-29T01:30:01;17.60;99.90
54192;DHT22;40101;53.002;6.488;2023-07-29T01:32:54;17.50;99.90
54192;DHT22;40101;53.002;6.488;2023-07-29T01:35:40;17.50;99.90
54192;DHT22;40101;53.002;6.488;2023-07-29T01:38:18;17.40;99.90
54192;DHT22;40101;53.002;6.488;2023-07-29T01:40:45;17.40;99.90
54192;DHT22;40101;53.002;6.488;2023-07-29T01:43:11;17.60;99.90
54192;DHT22;40101;53.002;6.488;2023-07-29T01:45:37;17.60;99.90
54192;DHT22;40101;53.002;6.488;2023-07-29T01:48:07;17.40;99.90
54192;DHT22;40101;53.002;6.488;2023-07-29T01:50:34;17.40;99.90
54192;DHT22;40101;53.002;6.488;2023-07-29T01:53:00;17.20;99.90
54192;DHT22;40101;53.002;6.488;2023-07-29T01:55:25;17.20;99.90
54192;DHT22;40101;53.002;6.488;2023-07-29T01:57:51;17.20;99.90
54192;DHT22;40101;53.002;6.488;2023-07-29T02:00:18;17.20;99.90
54192;DHT22;40101;53.002;6.488;2023-07-29T02:02:44;17.20;99.90
54192;DHT22;40101;53.002;6.488;2023-07-29T02:05:10;17.20;99.90
54192;DHT22;40101;53.002;6.488;2023-07-29T02:07:35;17.50;99.90
54192;DHT22;40101;53.002;6.488;2023-07-29T02:10:01;17.20;99.90
54192;DHT22;40101;53.002;6.488;2023-07-29T02:12:26;17.20;99.90
54192;DHT22;40101;53.002;6.488;2023-07-29T02:14:52;17.20;99.90
54192;DHT22;40101;53.002;6.488;2023-07-29T02:17:18;17.20;99.90
54192;DHT22;40101;53.002;6.488;2023-07-29T02:19:43;17.20;99.90
54192;DHT22;40101;53.002;6.488;2023-07-29T02:22:13;17.20;99.90
54192;DHT22;40101;53.002;6.488;2023-07-29T02:24:38;17.20;99.90
54192;DHT22;40101;53.002;6.488;2023-07-29T02:27:04;17.10;99.90
54192;DHT22;40101;53.002;6.488;2023-07-29T02:29:30;17.20;99.90
54192;DHT22;40101;53.002;6.488;2023-07-29T02:31:56;17.30;99.90
54192;DHT22;40101;53.002;6.488;2023-07-29T02:34:21;17.10;99.90
54192;DHT22;40101;53.002;6.488;2023-07-29T02:36:47;17.00;99.90
54192;DHT22;40101;53.002;6.488;2023-07-29T02:39:13;17.00;99.90
54192;DHT22;40101;53.002;6.488;2023-07-29T02:41:38;17.00;99.90
54192;DHT22;40101;53.002;6.488;2023-07-29T02:44:05;16.90;99.90
54192;DHT22;40101;53.002;6.488;2023-07-29T02:46:30;17.10;99.90
54192;DHT22;40101;53.002;6.488;2023-07-29T02:48:56;17.10;99.90
54192;DHT22;40101;53.002;6.488;2023-07-29T02:51:22;17.00;99.90
54192;DHT22;40101;53.002;6.488;2023-07-29T02:53:47;17.20;99.90
54192;DHT22;40101;53.002;6.488;2023-07-29T02:56:13;17.00;99.90
54192;DHT22;40101;53.002;6.488;2023-07-29T02:58:39;16.90;99.90
54192;DHT22;40101;53.002;6.488;2023-07-29T03:01:05;16.90;99.90
54192;DHT22;40101;53.002;6.488;2023-07-29T03:03:32;16.90;99.90
54192;DHT22;40101;53.002;6.488;2023-07-29T03:06:06;16.90;99.90
54192;DHT22;40101;53.002;6.488;2023-07-29T03:08:31;16.90;99.90
54192;DHT22;40101;53.002;6.488;2023-07-29T03:10:58;16.90;99.90
54192;DHT22;40101;53.002;6.488;2023-07-29T03:13:23;16.90;99.90
54192;DHT22;40101;53.002;6.488;2023-07-29T03:15:49;16.80;99.90
54192;DHT22;40101;53.002;6.488;2023-07-29T03:18:15;16.80;99.90
54192;DHT22;40101;53.002;6.488;2023-07-29T03:20:41;16.70;99.90
54192;DHT22;40101;53.002;6.488;2023-07-29T03:23:07;16.80;99.90
54192;DHT22;40101;53.002;6.488;2023-07-29T03:25:32;16.70;99.90
54192;DHT22;40101;53.002;6.488;2023-07-29T03:27:58;16.70;99.90
54192;DHT22;40101;53.002;6.488;2023-07-29T03:30:24;16.70;99.90
54192;DHT22;40101;53.002;6.488;2023-07-29T03:32:50;16.80;99.90
54192;DHT22;40101;53.002;6.488;2023-07-29T03:35:16;16.70;99.90
54192;DHT22;40101;53.002;6.488;2023-07-29T03:37:42;16.60;99.90
54192;DHT22;40101;53.002;6.488;2023-07-29T03:40:08;16.70;99.90
54192;DHT22;40101;53.002;6.488;2023-07-29T03:42:36;16.60;99.90
54192;DHT22;40101;53.002;6.488;2023-07-29T03:45:02;16.70;99.90
54192;DHT22;40101;53.002;6.488;2023-07-29T03:47:28;16.60;99.90
54192;DHT22;40101;53.002;6.488;2023-07-29T03:49:54;16.60;99.90
54192;DHT22;40101;53.002;6.488;2023-07-29T03:52:19;16.60;99.90
54192;DHT22;40101;53.002;6.488;2023-07-29T03:54:45;16.60;99.90
54192;DHT22;40101;53.002;6.488;2023-07-29T03:57:11;16.60;99.90
54192;DHT22;40101;53.002;6.488;2023-07-29T03:59:36;16.60;99.90
54192;DHT22;40101;53.002;6.488;2023-07-29T04:02:02;16.50;99.90
54192;DHT22;40101;53.002;6.488;2023-07-29T04:04:28;16.50;99.90
54192;DHT22;40101;53.002;6.488;2023-07-29T04:06:54;16.60;99.90
54192;DHT22;40101;53.002;6.488;2023-07-29T04:09:19;16.60;99.90
54192;DHT22;40101;53.002;6.488;2023-07-29T04:11:45;16.60;99.90
54192;DHT22;40101;53.002;6.488;2023-07-29T04:14:10;16.60;99.90
54192;DHT22;40101;53.002;6.488;2023-07-29T04:16:36;16.60;99.90
54192;DHT22;40101;53.002;6.488;2023-07-29T04:19:02;16.60;99.90
54192;DHT22;40101;53.002;6.488;2023-07-29T04:21:27;16.80;99.90
54192;DHT22;40101;53.002;6.488;2023-07-29T04:23:53;16.70;99.90
54192;DHT22;40101;53.002;6.488;2023-07-29T04:26:19;16.70;99.90
54192;DHT22;40101;53.002;6.488;2023-07-29T04:28:44;16.70;99.90
54192;DHT22;40101;53.002;6.488;2023-07-29T04:31:10;16.70;99.90
54192;DHT22;40101;53.002;6.488;2023-07-29T04:33:35;16.70;99.90
54192;DHT22;40101;53.002;6.488;2023-07-29T04:36:01;16.80;99.90
54192;DHT22;40101;53.002;6.488;2023-07-29T04:38:33;16.80;99.90
54192;DHT22;40101;53.002;6.488;2023-07-29T04:40:59;16.90;99.90
54192;DHT22;40101;53.002;6.488;2023-07-29T04:43:30;16.90;99.90
54192;DHT22;40101;53.002;6.488;2023-07-29T04:45:55;17.00;99.90
54192;DHT22;40101;53.002;6.488;2023-07-29T04:48:21;16.90;99.90
54192;DHT22;40101;53.002;6.488;2023-07-29T04:50:47;16.90;99.90
54192;DHT22;40101;53.002;6.488;2023-07-29T04:53:13;16.90;99.90
54192;DHT22;40101;53.002;6.488;2023-07-29T04:55:40;16.90;99.90
54192;DHT22;40101;53.002;6.488;2023-07-29T04:58:06;16.90;99.90
54192;DHT22;40101;53.002;6.488;2023-07-29T05:00:32;16.90;99.90
54192;DHT22;40101;53.002;6.488;2023-07-29T05:02:59;16.90;99.90
54192;DHT22;40101;53.002;6.488;2023-07-29T05:05:24;16.90;99.90
54192;DHT22;40101;53.002;6.488;2023-07-29T05:07:50;16.90;99.90
54192;DHT22;40101;53.002;6.488;2023-07-29T05:10:15;17.10;99.90
54192;DHT22;40101;53.002;6.488;2023-07-29T05:12:41;16.90;99.90
54192;DHT22;40101;53.002;6.488;2023-07-29T05:15:07;16.90;99.90
54192;DHT22;40101;53.002;6.488;2023-07-29T05:17:33;16.90;99.90
54192;DHT22;40101;53.002;6.488;2023-07-29T05:19:58;16.90;99.90
54192;DHT22;40101;53.002;6.488;2023-07-29T05:22:24;16.90;99.90
54192;DHT22;40101;53.002;6.488;2023-07-29T05:24:50;16.90;99.90
54192;DHT22;40101;53.002;6.488;2023-07-29T05:27:16;16.90;99.90
54192;DHT22;40101;53.002;6.488;2023-07-29T05:29:41;16.80;99.90
54192;DHT22;40101;53.002;6.488;2023-07-29T05:32:07;17.00;99.90
54192;DHT22;40101;53.002;6.488;2023-07-29T05:34:33;17.00;99.90
54192;DHT22;40101;53.002;6.488;2023-07-29T05:36:58;17.20;99.90
54192;DHT22;40101;53.002;6.488;2023-07-29T05:39:24;17.10;99.90
54192;DHT22;40101;53.002;6.488;2023-07-29T05:41:50;16.90;99.90
54192;DHT22;40101;53.002;6.488;2023-07-29T05:44:15;17.10;99.90
54192;DHT22;40101;53.002;6.488;2023-07-29T05:46:41;17.10;99.90
54192;DHT22;40101;53.002;6.488;2023-07-29T05:49:06;17.20;99.90
54192;DHT22;40101;53.002;6.488;2023-07-29T05:51:32;16.90;99.90
54192;DHT22;40101;53.002;6.488;2023-07-29T05:53:58;17.10;99.90
54192;DHT22;40101;53.002;6.488;2023-07-29T05:56:24;17.00;99.90
54192;DHT22;40101;53.002;6.488;2023-07-29T05:58:49;17.30;99.90
54192;DHT22;40101;53.002;6.488;2023-07-29T06:01:15;17.10;99.90
54192;DHT22;40101;53.002;6.488;2023-07-29T06:03:40;17.20;99.90
54192;DHT22;40101;53.002;6.488;2023-07-29T06:06:06;17.10;99.90
54192;DHT22;40101;53.002;6.488;2023-07-29T06:08:32;17.10;99.90
54192;DHT22;40101;53.002;6.488;2023-07-29T06:11:00;17.20;99.90
54192;DHT22;40101;53.002;6.488;2023-07-29T06:13:25;17.20;99.90
54192;DHT22;40101;53.002;6.488;2023-07-29T06:15:51;17.50;99.90
54192;DHT22;40101;53.002;6.488;2023-07-29T06:18:16;17.50;99.90
54192;DHT22;40101;53.002;6.488;2023-07-29T06:20:42;17.40;99.90
54192;DHT22;40101;53.002;6.488;2023-07-29T06:23:08;17.50;99.90
54192;DHT22;40101;53.002;6.488;2023-07-29T06:25:34;17.80;99.90
54192;DHT22;40101;53.002;6.488;2023-07-29T06:28:00;17.90;99.90
54192;DHT22;40101;53.002;6.488;2023-07-29T06:30:26;18.10;99.90
54192;DHT22;40101;53.002;6.488;2023-07-29T06:32:51;18.50;99.90
54192;DHT22;40101;53.002;6.488;2023-07-29T06:35:17;19.00;99.90
54192;DHT22;40101;53.002;6.488;2023-07-29T06:37:43;19.60;99.90
54192;DHT22;40101;53.002;6.488;2023-07-29T06:40:09;20.00;99.90
54192;DHT22;40101;53.002;6.488;2023-07-29T06:42:34;19.90;99.90
54192;DHT22;40101;53.002;6.488;2023-07-29T06:45:00;19.80;99.90
54192;DHT22;40101;53.002;6.488;2023-07-29T06:47:26;19.60;99.90
54192;DHT22;40101;53.002;6.488;2023-07-29T06:49:51;19.50;99.90
54192;DHT22;40101;53.002;6.488;2023-07-29T06:52:17;19.40;99.90
54192;DHT22;40101;53.002;6.488;2023-07-29T06:54:42;19.40;99.90
54192;DHT22;40101;53.002;6.488;2023-07-29T06:57:08;19.50;99.90
54192;DHT22;40101;53.002;6.488;2023-07-29T06:59:34;19.40;99.90
54192;DHT22;40101;53.002;6.488;2023-07-29T07:01:59;19.40;99.90
54192;DHT22;40101;53.002;6.488;2023-07-29T07:04:25;19.50;99.90
54192;DHT22;40101;53.002;6.488;2023-07-29T07:06:51;19.50;99.90
54192;DHT22;40101;53.002;6.488;2023-07-29T07:09:17;19.60;99.90
54192;DHT22;40101;53.002;6.488;2023-07-29T07:11:42;19.80;99.90
54192;DHT22;40101;53.002;6.488;2023-07-29T07:14:08;19.50;99.90
54192;DHT22;40101;53.002;6.488;2023-07-29T07:16:33;19.50;99.90
54192;DHT22;40101;53.002;6.488;2023-07-29T07:19:02;19.40;99.90
54192;DHT22;40101;53.002;6.488;2023-07-29T07:21:27;19.50;99.90
54192;DHT22;40101;53.002;6.488;2023-07-29T07:23:53;19.60;99.90
54192;DHT22;40101;53.002;6.488;2023-07-29T07:26:19;19.80;99.90
54192;DHT22;40101;53.002;6.488;2023-07-29T07:28:44;19.70;99.90
54192;DHT22;40101;53.002;6.488;2023-07-29T07:31:10;19.60;99.90
54192;DHT22;40101;53.002;6.488;2023-07-29T07:33:36;19.60;99.90
54192;DHT22;40101;53.002;6.488;2023-07-29T07:36:01;19.70;99.90
54192;DHT22;40101;53.002;6.488;2023-07-29T07:38:27;19.60;99.90
54192;DHT22;40101;53.002;6.488;2023-07-29T07:40:54;19.90;99.90
54192;DHT22;40101;53.002;6.488;2023-07-29T07:43:23;20.10;99.90
54192;DHT22;40101;53.002;6.488;2023-07-29T07:45:49;20.30;99.90
54192;DHT22;40101;53.002;6.488;2023-07-29T07:48:15;20.50;99.90
54192;DHT22;40101;53.002;6.488;2023-07-29T07:50:42;20.60;99.90
54192;DHT22;40101;53.002;6.488;2023-07-29T07:53:08;20.50;99.90
54192;DHT22;40101;53.002;6.488;2023-07-29T07:55:34;20.30;99.90
54192;DHT22;40101;53.002;6.488;2023-07-29T07:57:59;20.40;99.90
54192;DHT22;40101;53.002;6.488;2023-07-29T08:00:25;20.30;99.90
54192;DHT22;40101;53.002;6.488;2023-07-29T08:02:51;20.30;99.90
54192;DHT22;40101;53.002;6.488;2023-07-29T08:05:17;20.20;99.90
54192;DHT22;40101;53.002;6.488;2023-07-29T08:07:43;20.30;99.90
54192;DHT22;40101;53.002;6.488;2023-07-29T08:10:09;20.20;99.90
54192;DHT22;40101;53.002;6.488;2023-07-29T08:12:35;21.00;99.90
54192;DHT22;40101;53.002;6.488;2023-07-29T08:15:00;21.80;99.90
54192;DHT22;40101;53.002;6.488;2023-07-29T08:17:26;22.20;99.90
54192;DHT22;40101;53.002;6.488;2023-07-29T08:19:52;22.50;99.90
54192;DHT22;40101;53.002;6.488;2023-07-29T08:22:17;23.40;99.90
54192;DHT22;40101;53.002;6.488;2023-07-29T08:24:43;24.30;99.90
54192;DHT22;40101;53.002;6.488;2023-07-29T08:27:09;25.10;99.90
54192;DHT22;40101;53.002;6.488;2023-07-29T08:29:36;25.60;99.90
54192;DHT22;40101;53.002;6.488;2023-07-29T08:32:01;25.50;99.90
54192;DHT22;40101;53.002;6.488;2023-07-29T08:34:27;25.10;99.90
54192;DHT22;40101;53.002;6.488;2023-07-29T08:36:53;24.80;99.90
54192;DHT22;40101;53.002;6.488;2023-07-29T08:39:18;24.60;99.90
54192;DHT22;40101;53.002;6.488;2023-07-29T08:41:51;24.80;99.90
54192;DHT22;40101;53.002;6.488;2023-07-29T08:44:22;24.40;99.90
54192;DHT22;40101;53.002;6.488;2023-07-29T08:46:49;23.60;99.90
54192;DHT22;40101;53.002;6.488;2023-07-29T08:49:15;23.10;99.90
54192;DHT22;40101;53.002;6.488;2023-07-29T08:51:46;22.60;99.90
54192;DHT22;40101;53.002;6.488;2023-07-29T08:54:13;22.20;99.90
54192;DHT22;40101;53.002;6.488;2023-07-29T08:56:41;22.10;99.90
54192;DHT22;40101;53.002;6.488;2023-07-29T08:59:07;22.20;99.90
54192;DHT22;40101;53.002;6.488;2023-07-29T09:01:33;22.40;99.90
54192;DHT22;40101;53.002;6.488;2023-07-29T09:03:59;22.50;99.90
54192;DHT22;40101;53.002;6.488;2023-07-29T09:06:25;22.90;99.90
54192;DHT22;40101;53.002;6.488;2023-07-29T09:08:54;23.10;99.90
54192;DHT22;40101;53.002;6.488;2023-07-29T09:11:22;23.50;99.90
54192;DHT22;40101;53.002;6.488;2023-07-29T09:13:48;24.00;99.90
54192;DHT22;40101;53.002;6.488;2023-07-29T09:16:14;24.20;99.90
54192;DHT22;40101;53.002;6.488;2023-07-29T09:18:40;23.90;99.90
54192;DHT22;40101;53.002;6.488;2023-07-29T09:21:06;23.70;99.90
54192;DHT22;40101;53.002;6.488;2023-07-29T09:23:44;24.20;99.90
54192;DHT22;40101;53.002;6.488;2023-07-29T09:26:10;24.80;99.90
54192;DHT22;40101;53.002;6.488;2023-07-29T09:28:38;25.00;99.90
54192;DHT22;40101;53.002;6.488;2023-07-29T09:31:04;24.90;99.90
54192;DHT22;40101;53.002;6.488;2023-07-29T09:33:34;24.90;99.90
54192;DHT22;40101;53.002;6.488;2023-07-29T09:36:09;25.00;99.90
54192;DHT22;40101;53.002;6.488;2023-07-29T09:38:35;25.00;99.90
54192;DHT22;40101;53.002;6.488;2023-07-29T09:41:01;25.30;99.90
54192;DHT22;40101;53.002;6.488;2023-07-29T09:43:35;25.80;99.90
54192;DHT22;40101;53.002;6.488;2023-07-29T09:46:01;25.90;99.90
54192;DHT22;40101;53.002;6.488;2023-07-29T09:48:27;26.00;99.90
54192;DHT22;40101;53.002;6.488;2023-07-29T09:50:56;25.90;99.90
54192;DHT22;40101;53.002;6.488;2023-07-29T09:53:21;26.10;99.90
54192;DHT22;40101;53.002;6.488;2023-07-29T09:55:48;26.20;99.90
54192;DHT22;40101;53.002;6.488;2023-07-29T09:58:21;26.20;99.90
54192;DHT22;40101;53.002;6.488;2023-07-29T10:00:51;25.90;99.90
54192;DHT22;40101;53.002;6.488;2023-07-29T10:03:18;25.80;99.90
54192;DHT22;40101;53.002;6.488;2023-07-29T10:05:45;25.40;99.90
54192;DHT22;40101;53.002;6.488;2023-07-29T10:08:13;25.00;99.90
54192;DHT22;40101;53.002;6.488;2023-07-29T10:10:40;24.70;99.90
54192;DHT22;40101;53.002;6.488;2023-07-29T10:13:07;24.60;99.90
54192;DHT22;40101;53.002;6.488;2023-07-29T10:15:33;24.50;99.90
54192;DHT22;40101;53.002;6.488;2023-07-29T10:17:59;24.30;99.90
54192;DHT22;40101;53.002;6.488;2023-07-29T10:20:26;24.10;99.90
54192;DHT22;40101;53.002;6.488;2023-07-29T10:22:56;23.70;99.90
54192;DHT22;40101;53.002;6.488;2023-07-29T10:25:25;23.60;99.90
54192;DHT22;40101;53.002;6.488;2023-07-29T10:28:07;23.70;99.90
54192;DHT22;40101;53.002;6.488;2023-07-29T10:30:33;24.00;99.90
54192;DHT22;40101;53.002;6.488;2023-07-29T10:33:04;24.50;99.90
54192;DHT22;40101;53.002;6.488;2023-07-29T10:35:32;24.50;99.90
54192;DHT22;40101;53.002;6.488;2023-07-29T10:37:59;24.30;99.90
54192;DHT22;40101;53.002;6.488;2023-07-29T10:40:25;24.10;99.90
54192;DHT22;40101;53.002;6.488;2023-07-29T10:43:10;23.70;99.90
54192;DHT22;40101;53.002;6.488;2023-07-29T10:45:38;23.40;99.90
54192;DHT22;40101;53.002;6.488;2023-07-29T10:48:10;23.00;99.90
54192;DHT22;40101;53.002;6.488;2023-07-29T10:50:36;23.00;99.90
54192;DHT22;40101;53.002;6.488;2023-07-29T10:53:02;23.00;99.90
54192;DHT22;40101;53.002;6.488;2023-07-29T10:55:30;22.80;99.90
54192;DHT22;40101;53.002;6.488;2023-07-29T10:58:07;22.40;99.90
54192;DHT22;40101;53.002;6.488;2023-07-29T11:00:33;22.00;99.90
54192;DHT22;40101;53.002;6.488;2023-07-29T11:03:05;21.80;99.90
54192;DHT22;40101;53.002;6.488;2023-07-29T11:05:46;21.90;99.90
54192;DHT22;40101;53.002;6.488;2023-07-29T11:08:17;22.00;99.90
54192;DHT22;40101;53.002;6.488;2023-07-29T11:10:44;22.50;99.90
54192;DHT22;40101;53.002;6.488;2023-07-29T11:13:22;22.80;99.90
54192;DHT22;40101;53.002;6.488;2023-07-29T11:15:49;22.90;99.90
54192;DHT22;40101;53.002;6.488;2023-07-29T11:18:15;22.70;99.90
54192;DHT22;40101;53.002;6.488;2023-07-29T11:20:41;22.50;99.90
54192;DHT22;40101;53.002;6.488;2023-07-29T11:23:07;22.40;99.90
54192;DHT22;40101;53.002;6.488;2023-07-29T11:25:33;22.20;99.90
54192;DHT22;40101;53.002;6.488;2023-07-29T11:28:01;22.30;99.90
54192;DHT22;40101;53.002;6.488;2023-07-29T11:30:27;22.40;99.90
54192;DHT22;40101;53.002;6.488;2023-07-29T11:32:55;22.80;99.90
54192;DHT22;40101;53.002;6.488;2023-07-29T11:35:23;23.00;99.90
54192;DHT22;40101;53.002;6.488;2023-07-29T11:37:50;23.20;99.90
54192;DHT22;40101;53.002;6.488;2023-07-29T11:40:18;23.20;99.90
54192;DHT22;40101;53.002;6.488;2023-07-29T11:42:48;23.40;99.90
54192;DHT22;40101;53.002;6.488;2023-07-29T11:45:16;23.30;99.90
54192;DHT22;40101;53.002;6.488;2023-07-29T11:47:42;23.20;99.90
54192;DHT22;40101;53.002;6.488;2023-07-29T11:50:09;23.10;99.90
54192;DHT22;40101;53.002;6.488;2023-07-29T11:52:36;23.10;99.90
54192;DHT22;40101;53.002;6.488;2023-07-29T11:55:03;23.20;99.90
54192;DHT22;40101;53.002;6.488;2023-07-29T11:57:33;23.10;99.90
54192;DHT22;40101;53.002;6.488;2023-07-29T12:00:05;22.90;99.90
54192;DHT22;40101;53.002;6.488;2023-07-29T12:02:36;22.80;99.90
54192;DHT22;40101;53.002;6.488;2023-07-29T12:05:03;22.80;99.90
54192;DHT22;40101;53.002;6.488;2023-07-29T12:07:29;22.90;99.90
54192;DHT22;40101;53.002;6.488;2023-07-29T12:09:55;22.90;99.90
54192;DHT22;40101;53.002;6.488;2023-07-29T12:12:22;23.00;99.90
54192;DHT22;40101;53.002;6.488;2023-07-29T12:14:48;23.10;99.90
54192;DHT22;40101;53.002;6.488;2023-07-29T12:17:15;23.30;99.90
54192;DHT22;40101;53.002;6.488;2023-07-29T12:19:41;23.80;99.90
54192;DHT22;40101;53.002;6.488;2023-07-29T12:22:09;23.90;99.90
54192;DHT22;40101;53.002;6.488;2023-07-29T12:24:37;23.90;99.90
54192;DHT22;40101;53.002;6.488;2023-07-29T12:27:03;24.10;99.90
54192;DHT22;40101;53.002;6.488;2023-07-29T12:29:29;24.10;99.90
54192;DHT22;40101;53.002;6.488;2023-07-29T12:32:02;23.80;99.90
54192;DHT22;40101;53.002;6.488;2023-07-29T12:34:29;23.60;99.90
54192;DHT22;40101;53.002;6.488;2023-07-29T12:36:57;23.40;99.90
54192;DHT22;40101;53.002;6.488;2023-07-29T12:39:28;23.30;99.90
54192;DHT22;40101;53.002;6.488;2023-07-29T12:41:58;23.40;99.90
54192;DHT22;40101;53.002;6.488;2023-07-29T12:44:30;23.50;99.90
54192;DHT22;40101;53.002;6.488;2023-07-29T12:46:56;23.60;99.90
54192;DHT22;40101;53.002;6.488;2023-07-29T12:49:22;23.60;99.90
54192;DHT22;40101;53.002;6.488;2023-07-29T12:51:48;23.80;99.90
54192;DHT22;40101;53.002;6.488;2023-07-29T12:54:14;24.00;99.90
54192;DHT22;40101;53.002;6.488;2023-07-29T12:56:39;23.80;99.90
54192;DHT22;40101;53.002;6.488;2023-07-29T12:59:05;23.70;99.90
54192;DHT22;40101;53.002;6.488;2023-07-29T13:01:31;23.50;99.90
54192;DHT22;40101;53.002;6.488;2023-07-29T13:03:57;23.50;99.90
54192;DHT22;40101;53.002;6.488;2023-07-29T13:06:23;23.50;99.90
54192;DHT22;40101;53.002;6.488;2023-07-29T13:08:48;23.50;99.90
54192;DHT22;40101;53.002;6.488;2023-07-29T13:11:15;23.50;99.90
54192;DHT22;40101;53.002;6.488;2023-07-29T13:13:40;23.40;99.90
54192;DHT22;40101;53.002;6.488;2023-07-29T13:16:06;23.40;99.90
54192;DHT22;40101;53.002;6.488;2023-07-29T13:18:32;23.50;99.90
54192;DHT22;40101;53.002;6.488;2023-07-29T13:20:58;23.80;99.90
54192;DHT22;40101;53.002;6.488;2023-07-29T13:23:25;23.90;99.90
54192;DHT22;40101;53.002;6.488;2023-07-29T13:25:51;23.90;99.90
54192;DHT22;40101;53.002;6.488;2023-07-29T13:28:18;24.00;99.90
54192;DHT22;40101;53.002;6.488;2023-07-29T13:30:44;24.00;99.90
54192;DHT22;40101;53.002;6.488;2023-07-29T13:33:10;24.00;99.90
54192;DHT22;40101;53.002;6.488;2023-07-29T13:35:36;24.00;99.90
54192;DHT22;40101;53.002;6.488;2023-07-29T13:38:02;24.10;99.90
54192;DHT22;40101;53.002;6.488;2023-07-29T13:40:28;24.10;99.90
54192;DHT22;40101;53.002;6.488;2023-07-29T13:42:54;24.00;99.90
54192;DHT22;40101;53.002;6.488;2023-07-29T13:45:20;24.00;99.90
54192;DHT22;40101;53.002;6.488;2023-07-29T13:47:46;23.90;99.90
54192;DHT22;40101;53.002;6.488;2023-07-29T13:50:12;23.70;99.90
54192;DHT22;40101;53.002;6.488;2023-07-29T13:52:37;23.50;99.90
54192;DHT22;40101;53.002;6.488;2023-07-29T13:55:04;23.50;99.90
54192;DHT22;40101;53.002;6.488;2023-07-29T13:57:30;23.70;99.90
54192;DHT22;40101;53.002;6.488;2023-07-29T13:59:56;24.00;99.90
54192;DHT22;40101;53.002;6.488;2023-07-29T14:02:22;24.20;99.90
54192;DHT22;40101;53.002;6.488;2023-07-29T14:04:48;24.40;99.90
54192;DHT22;40101;53.002;6.488;2023-07-29T14:07:13;24.40;99.90
54192;DHT22;40101;53.002;6.488;2023-07-29T14:09:39;24.30;99.90
54192;DHT22;40101;53.002;6.488;2023-07-29T14:12:06;24.20;99.90
54192;DHT22;40101;53.002;6.488;2023-07-29T14:14:32;24.10;99.90
54192;DHT22;40101;53.002;6.488;2023-07-29T14:16:57;24.10;99.90
54192;DHT22;40101;53.002;6.488;2023-07-29T14:19:23;24.20;99.90
54192;DHT22;40101;53.002;6.488;2023-07-29T14:21:49;24.20;99.90
54192;DHT22;40101;53.002;6.488;2023-07-29T14:24:15;24.20;99.90
54192;DHT22;40101;53.002;6.488;2023-07-29T14:26:42;24.10;99.90
54192;DHT22;40101;53.002;6.488;2023-07-29T14:29:07;24.10;99.90
54192;DHT22;40101;53.002;6.488;2023-07-29T14:31:33;23.90;99.90
54192;DHT22;40101;53.002;6.488;2023-07-29T14:33:59;23.70;99.90
54192;DHT22;40101;53.002;6.488;2023-07-29T14:36:25;23.70;99.90
54192;DHT22;40101;53.002;6.488;2023-07-29T14:38:51;23.90;99.90
54192;DHT22;40101;53.002;6.488;2023-07-29T14:41:17;23.90;99.90
54192;DHT22;40101;53.002;6.488;2023-07-29T14:43:43;23.90;99.90
54192;DHT22;40101;53.002;6.488;2023-07-29T14:46:08;23.90;99.90
54192;DHT22;40101;53.002;6.488;2023-07-29T14:48:34;24.00;99.90
54192;DHT22;40101;53.002;6.488;2023-07-29T14:51:00;24.10;99.90
54192;DHT22;40101;53.002;6.488;2023-07-29T14:53:25;24.10;99.90
54192;DHT22;40101;53.002;6.488;2023-07-29T14:55:51;24.10;99.90
54192;DHT22;40101;53.002;6.488;2023-07-29T14:58:17;24.10;99.90
54192;DHT22;40101;53.002;6.488;2023-07-29T15:00:42;24.20;99.90
54192;DHT22;40101;53.002;6.488;2023-07-29T15:03:08;23.90;99.90
54192;DHT22;40101;53.002;6.488;2023-07-29T15:05:34;24.10;99.90
54192;DHT22;40101;53.002;6.488;2023-07-29T15:07:59;24.10;99.90
54192;DHT22;40101;53.002;6.488;2023-07-29T15:10:25;24.10;99.90
54192;DHT22;40101;53.002;6.488;2023-07-29T15:12:51;24.10;99.90
54192;DHT22;40101;53.002;6.488;2023-07-29T15:15:17;24.10;99.90
54192;DHT22;40101;53.002;6.488;2023-07-29T15:17:43;24.10;99.90
54192;DHT22;40101;53.002;6.488;2023-07-29T15:20:09;23.90;99.90
54192;DHT22;40101;53.002;6.488;2023-07-29T15:22:34;23.60;99.90
54192;DHT22;40101;53.002;6.488;2023-07-29T15:25:00;23.60;99.90
54192;DHT22;40101;53.002;6.488;2023-07-29T15:27:30;23.50;99.90
54192;DHT22;40101;53.002;6.488;2023-07-29T15:29:56;23.50;99.90
54192;DHT22;40101;53.002;6.488;2023-07-29T15:32:22;23.30;99.90